Time;durP1;ratioP1;P1;durP2;ratioP2;P2;SDS_P1;SDS_P2;PMS_P1;PMS_P2;Temp;Humidity;BMP_temperature;BMP_pressure;BME280_temperature;BME280_humidity;BME280_pressure;Samples;Min_cycle;Max_cycle;Signal;HPM_P1;HPM_P2
2021/12/29 00:00:38;;;;;;;6.43;1.43;;;7.60;96.90;;;6.27;96.38;96361.34;5027579;28;20524;-71
2021/12/29 00:03:05;;;;;;;7.70;1.97;;;7.60;97.20;;;6.24;96.70;96367.97;5027676;28;21147;-68
2021/12/29 00:05:32;;;;;;;4.10;1.50;;;7.60;97.00;;;6.35;96.35;96379.78;5027619;28;20482;-71
2021/12/29 00:08:00;;;;;;;4.13;1.50;;;7.70;97.40;;;6.32;97.00;96363.34;5026248;28;20546;-70
2021/12/29 00:10:27;;;;;;;5.70;1.73;;;7.70;97.80;;;6.36;96.91;96375.25;5026085;28;21047;-70
2021/12/29 00:12:56;;;;;;;5.40;1.53;;;7.70;97.60;;;6.33;96.42;96364.97;5027510;28;20845;-67
2021/12/29 00:15:27;;;;;;;3.90;1.27;;;7.70;96.60;;;6.31;97.25;96369.75;5028983;28;20461;-69
2021/12/29 00:17:58;;;;;;;4.60;1.00;;;7.70;98.00;;;6.36;97.32;96375.25;5041461;28;20890;-68
2021/12/29 00:20:29;;;;;;;6.07;2.13;;;7.70;98.90;;;6.29;97.79;96377.19;5026673;28;20570;-69
2021/12/29 00:22:57;;;;;;;2.90;1.70;;;7.70;98.90;;;6.34;97.49;96378.16;5026277;28;20852;-71
2021/12/29 00:25:25;;;;;;;7.20;2.07;;;7.70;98.60;;;6.35;97.66;96373.63;5027364;28;20459;-72
2021/12/29 00:27:54;;;;;;;7.30;2.33;;;7.70;99.00;;;6.32;98.23;96384.81;5026171;28;21055;-71
2021/12/29 00:30:21;;;;;;;5.80;2.00;;;7.70;99.90;;;6.31;97.54;96383.97;5027234;28;20544;-68
2021/12/29 00:32:49;;;;;;;3.33;2.00;;;7.70;99.80;;;6.37;97.58;96392.97;5027143;28;20455;-68
2021/12/29 00:35:18;;;;;;;4.37;1.63;;;7.70;99.90;;;6.38;97.08;96392.75;5026849;28;20478;-72
2021/12/29 00:37:45;;;;;;;5.53;1.70;;;7.70;98.90;;;6.49;96.70;96401.06;5026052;28;20495;-70
2021/12/29 00:40:13;;;;;;;4.57;1.70;;;7.80;97.80;;;6.36;97.18;96405.56;5026182;28;20566;-69
2021/12/29 00:42:41;;;;;;;8.60;1.80;;;7.70;98.50;;;6.41;97.50;96404.88;5025421;28;20447;-68
2021/12/29 00:45:10;;;;;;;6.43;1.80;;;7.70;98.30;;;6.42;97.21;96403.84;5026718;28;20826;-67
2021/12/29 00:47:38;;;;;;;7.97;1.50;;;7.80;98.10;;;6.49;96.21;96428.72;5024781;28;20966;-72
2021/12/29 00:50:10;;;;;;;4.93;1.70;;;7.80;97.00;;;6.56;96.56;96425.09;5028211;28;20466;-71
2021/12/29 00:52:38;;;;;;;5.90;1.77;;;7.90;97.50;;;6.48;96.92;96432.44;5041733;28;20463;-70
2021/12/29 00:55:06;;;;;;;11.83;1.67;;;7.80;98.30;;;6.44;96.02;96412.47;5027547;28;20470;-69
2021/12/29 00:57:33;;;;;;;6.50;1.60;;;7.80;96.40;;;6.52;95.70;96432.78;5027305;28;20568;-68
2021/12/29 01:00:00;;;;;;;2.87;1.10;;;7.90;95.80;;;6.52;95.51;96439.00;5026677;28;20506;-68
2021/12/29 01:02:28;;;;;;;3.57;1.47;;;7.80;95.50;;;6.57;95.27;96432.94;5028072;28;20455;-70
2021/12/29 01:04:55;;;;;;;2.03;1.00;;;7.90;95.20;;;6.57;94.93;96440.16;5025672;28;21020;-67
2021/12/29 01:07:22;;;;;;;3.43;1.13;;;7.90;95.00;;;6.61;94.59;96454.78;5022610;28;20489;-68
2021/12/29 01:09:50;;;;;;;0.90;0.70;;;7.90;94.90;;;6.65;93.95;96458.63;5025089;28;20942;-69
2021/12/29 01:12:17;;;;;;;2.80;1.00;;;8.00;93.50;;;6.58;94.91;96450.69;5022725;28;20945;-69
2021/12/29 01:14:52;;;;;;;5.17;1.93;;;8.00;93.90;;;6.15;94.49;96390.81;5025218;28;20491;-70
2021/12/29 01:17:21;;;;;;;7.27;1.13;;;7.90;94.10;;;6.33;94.00;96419.44;5025771;28;20662;-66
2021/12/29 01:19:49;;;;;;;4.87;1.30;;;8.00;94.00;;;6.70;93.86;96476.75;5027054;28;20492;-67
2021/12/29 01:22:17;;;;;;;1.70;1.07;;;8.00;94.00;;;6.56;94.67;96470.72;5029664;28;20466;-73
2021/12/29 01:24:46;;;;;;;4.13;1.00;;;8.00;94.70;;;6.60;95.67;96488.03;5040755;28;20496;-70
2021/12/29 01:27:14;;;;;;;2.60;1.00;;;8.00;96.10;;;6.63;95.86;96488.38;5042347;28;20494;-69
2021/12/29 01:29:42;;;;;;;2.53;1.20;;;7.90;96.60;;;6.58;96.31;96492.78;5025464;28;20550;-68
2021/12/29 01:32:09;;;;;;;4.03;1.27;;;7.90;97.10;;;6.58;96.72;96495.47;5026813;28;20463;-69
2021/12/29 01:34:37;;;;;;;7.50;1.43;;;7.90;97.80;;;6.52;96.86;96487.28;5026389;28;20462;-72
2021/12/29 01:37:05;;;;;;;4.97;1.30;;;7.90;97.30;;;6.62;96.75;96496.66;5024185;28;20540;-69
2021/12/29 01:39:32;;;;;;;2.43;1.10;;;7.90;97.60;;;6.59;97.01;96492.56;5024058;28;20561;-71
2021/12/29 01:42:00;;;;;;;4.20;1.33;;;7.90;98.00;;;6.60;97.12;96494.19;5026703;28;20522;-70
2021/12/29 01:44:29;;;;;;;2.60;1.57;;;7.90;97.80;;;6.58;97.17;96503.53;5039309;28;20577;-71
2021/12/29 01:46:58;;;;;;;3.13;1.20;;;7.90;98.60;;;6.58;97.45;96511.56;5025752;28;20520;-68
2021/12/29 01:49:26;;;;;;;2.60;1.00;;;7.90;98.80;;;6.61;97.58;96511.94;5022693;28;20459;-70
2021/12/29 01:52:01;;;;;;;4.40;1.47;;;7.90;99.60;;;6.47;97.35;96495.22;5029894;28;20795;-72
2021/12/29 01:54:34;;;;;;;3.60;2.20;;;7.90;98.80;;;6.49;97.79;96514.59;5027470;28;20465;-67
2021/12/29 01:57:03;;;;;;;4.23;1.20;;;7.90;99.60;;;6.57;98.05;96526.03;5043884;28;20526;-67
2021/12/29 01:59:31;;;;;;;3.80;1.10;;;7.90;99.90;;;6.45;98.55;96515.25;5028590;28;20503;-70
2021/12/29 02:01:59;;;;;;;2.60;0.73;;;7.80;99.90;;;6.50;98.47;96513.53;5029541;28;20461;-67
2021/12/29 02:04:26;;;;;;;3.27;1.30;;;7.80;99.90;;;6.43;99.13;96512.78;5026055;28;20463;-72
2021/12/29 02:06:53;;;;;;;2.57;0.90;;;7.90;99.90;;;6.51;98.70;96527.75;5042632;28;20540;-70
2021/12/29 02:09:20;;;;;;;3.17;1.17;;;7.90;99.90;;;6.56;98.63;96524.41;5030127;28;20457;-69
2021/12/29 02:11:48;;;;;;;3.80;1.40;;;7.90;99.90;;;6.49;98.32;96519.94;5024007;28;20510;-73
2021/12/29 02:14:15;;;;;;;5.33;1.30;;;7.90;99.90;;;6.51;98.68;96528.59;5041638;28;20498;-69
2021/12/29 02:16:45;;;;;;;3.87;1.23;;;7.90;99.90;;;6.54;98.48;96537.22;5028946;28;20459;-73
2021/12/29 02:19:13;;;;;;;4.03;1.17;;;7.90;99.90;;;6.59;98.26;96548.94;5027322;28;20813;-73
2021/12/29 02:21:50;;;;;;;2.57;1.20;;;7.90;99.90;;;6.58;98.12;96549.13;5031790;28;20578;-71
2021/12/29 02:24:18;;;;;;;1.93;0.93;;;7.90;99.90;;;6.59;98.29;96550.78;5029518;28;20461;-70
2021/12/29 02:26:47;;;;;;;1.60;0.77;;;7.90;99.90;;;6.59;98.72;96550.78;5028571;28;20955;-68
2021/12/29 02:29:17;;;;;;;1.87;0.90;;;7.90;99.90;;;6.56;98.75;96573.53;5025695;28;20966;-70
2021/12/29 02:31:45;;;;;;;3.27;0.87;;;7.90;99.90;;;6.58;97.90;96575.97;5035838;28;20910;-67
2021/12/29 02:34:16;;;;;;;1.60;0.87;;;7.90;99.90;;;6.61;98.44;96576.34;5028242;28;20861;-74
2021/12/29 02:36:46;;;;;;;1.70;0.73;;;7.90;99.90;;;6.60;98.21;96585.44;5028760;28;20550;-73
2021/12/29 02:39:18;;;;;;;4.57;1.03;;;7.90;99.90;;;6.64;98.24;96575.91;5028905;28;20482;-74
2021/12/29 02:41:50;;;;;;;2.20;1.37;;;7.90;99.90;;;6.56;98.56;96584.28;5021190;28;20457;-72
2021/12/29 02:44:23;;;;;;;1.13;0.70;;;7.90;99.90;;;6.65;97.82;96582.09;5028505;28;20474;-73
2021/12/29 02:46:51;;;;;;;2.33;0.70;;;8.00;99.50;;;6.59;97.79;96591.03;5020252;28;20463;-72
2021/12/29 02:49:18;;;;;;;3.47;0.90;;;7.90;99.90;;;6.59;97.87;96594.56;5027943;28;20465;-68
2021/12/29 02:51:48;;;;;;;1.63;0.70;;;7.90;99.90;;;6.57;98.77;96612.75;5030016;28;20578;-70
2021/12/29 02:54:16;;;;;;;2.50;0.93;;;7.90;99.90;;;6.54;99.62;96623.09;5043479;28;20827;-66
2021/12/29 02:56:44;;;;;;;2.90;0.80;;;7.90;99.90;;;6.54;99.77;96628.47;5029472;28;20463;-68
2021/12/29 02:59:11;;;;;;;2.20;0.70;;;7.90;99.90;;;6.56;100.00;96624.53;5026100;28;20512;-70
2021/12/29 03:01:38;;;;;;;2.03;0.90;;;7.90;99.90;;;6.56;99.90;96626.38;5042783;28;20516;-69
2021/12/29 03:04:07;;;;;;;1.00;0.60;;;7.90;99.90;;;6.52;100.00;96637.56;5027125;28;20898;-68
2021/12/29 03:06:34;;;;;;;1.13;0.70;;;7.90;99.90;;;6.54;100.00;96631.16;5027599;28;20459;-74
2021/12/29 03:09:06;;;;;;;1.70;0.90;;;7.90;99.90;;;6.60;99.76;96647.19;5028297;28;20465;-69
2021/12/29 03:11:33;;;;;;;3.63;1.20;;;7.90;99.90;;;6.60;99.19;96646.38;5020958;28;20488;-75
2021/12/29 03:14:00;;;;;;;2.23;0.87;;;8.00;99.90;;;6.57;99.39;96650.31;5043859;28;20578;-68
2021/12/29 03:16:27;;;;;;;1.90;1.00;;;7.90;99.90;;;6.65;98.95;96657.25;5028899;28;20487;-68
2021/12/29 03:18:54;;;;;;;1.53;0.90;;;8.00;99.90;;;6.37;98.75;96612.97;5026524;28;20477;-70
2021/12/29 03:21:21;;;;;;;2.00;0.87;;;8.00;99.90;;;6.27;98.86;96608.13;5028776;28;20502;-68
2021/12/29 03:23:49;;;;;;;3.50;1.20;;;8.00;99.90;;;6.65;98.75;96670.66;5026448;28;20951;-71
2021/12/29 03:26:18;;;;;;;4.93;1.23;;;8.00;99.90;;;6.73;98.33;96669.56;5028740;28;20454;-68
2021/12/29 03:28:45;;;;;;;2.53;1.00;;;8.10;99.90;;;6.68;98.85;96675.59;5025361;28;20554;-68
2021/12/29 03:31:15;;;;;;;1.70;0.67;;;8.00;99.90;;;6.69;99.00;96682.59;5028513;28;20934;-67
2021/12/29 03:33:44;;;;;;;1.77;0.67;;;8.00;99.90;;;6.70;98.71;96678.06;5025808;28;20773;-67
2021/12/29 03:36:13;;;;;;;1.60;0.80;;;8.00;99.90;;;6.69;98.54;96677.22;5029512;28;20458;-66
2021/12/29 03:38:42;;;;;;;1.73;0.90;;;8.00;99.90;;;6.66;98.70;96693.78;5024300;28;20490;-67
2021/12/29 03:41:13;;;;;;;2.87;0.87;;;8.00;99.90;;;6.65;99.28;96701.00;5028523;28;20474;-71
2021/12/29 03:43:43;;;;;;;2.60;0.87;;;8.00;99.90;;;6.59;99.30;96693.84;5041743;28;20568;-68
2021/12/29 03:46:12;;;;;;;1.80;0.90;;;8.00;99.90;;;6.67;99.38;96692.72;5027607;28;20542;-68
2021/12/29 03:48:41;;;;;;;1.93;0.90;;;8.00;99.90;;;6.64;98.54;96693.19;5040437;28;20542;-67
2021/12/29 03:51:08;;;;;;;3.40;1.00;;;8.00;99.90;;;6.67;99.18;96714.22;5027402;28;20462;-69
2021/12/29 03:53:37;;;;;;;1.77;0.83;;;8.00;99.90;;;6.69;98.39;96703.25;5025743;28;20958;-71
2021/12/29 03:56:05;;;;;;;2.37;0.80;;;8.00;99.70;;;6.66;97.98;96693.78;5043205;28;20497;-72
2021/12/29 03:58:32;;;;;;;1.53;0.87;;;8.10;99.90;;;6.74;96.95;96714.13;5024566;28;20470;-70
2021/12/29 04:01:04;;;;;;;2.20;0.97;;;8.10;98.00;;;6.74;96.72;96701.53;5027422;28;20822;-68
2021/12/29 04:03:31;;;;;;;2.87;0.70;;;8.10;97.40;;;6.80;96.85;96708.69;5040533;28;20959;-68
2021/12/29 04:05:59;;;;;;;0.97;0.70;;;8.10;97.30;;;6.76;96.89;96718.25;5027651;28;20562;-70
2021/12/29 04:08:26;;;;;;;2.03;0.80;;;8.10;97.20;;;6.79;96.63;96727.69;5026612;28;20498;-70
2021/12/29 04:10:53;;;;;;;2.63;1.07;;;8.10;96.60;;;6.79;96.77;96728.53;5041590;28;20463;-68
2021/12/29 04:13:20;;;;;;;1.90;0.90;;;8.10;97.50;;;6.78;96.86;96731.44;5025152;28;20458;-72
2021/12/29 04:15:48;;;;;;;1.63;0.80;;;8.10;97.30;;;6.76;96.78;96731.69;5026564;28;20522;-68
2021/12/29 04:18:26;;;;;;;2.17;0.80;;;8.10;97.70;;;6.84;96.54;96740.47;5024613;28;20478;-71
2021/12/29 04:20:57;;;;;;;1.50;0.90;;;8.10;97.40;;;6.75;96.44;96740.78;5026495;28;20467;-71
2021/12/29 04:23:27;;;;;;;2.60;1.00;;;8.20;96.50;;;6.67;96.55;96735.69;5041838;28;20873;-66
2021/12/29 04:25:54;;;;;;;3.50;1.10;;;8.10;96.70;;;6.77;97.03;96746.72;5044428;28;20470;-68
2021/12/29 04:28:25;;;;;;;1.60;0.80;;;8.10;98.10;;;6.82;96.70;96747.94;5026057;28;20546;-69
2021/12/29 04:30:55;;;;;;;3.13;1.00;;;8.10;97.60;;;6.80;96.58;96750.81;5027514;28;20564;-67
2021/12/29 04:33:26;;;;;;;2.13;0.90;;;8.20;96.90;;;6.36;96.53;96705.22;5025759;28;20562;-67
2021/12/29 04:35:53;;;;;;;2.63;0.80;;;8.10;97.00;;;6.78;95.90;96767.16;5025898;28;20578;-68
2021/12/29 04:38:24;;;;;;;3.60;0.70;;;8.20;95.90;;;6.78;96.23;96775.22;5024730;28;20545;-68
2021/12/29 04:40:53;;;;;;;2.27;1.30;;;8.10;96.40;;;6.70;96.85;96774.69;5027572;28;20466;-67
2021/12/29 04:43:21;;;;;;;1.07;0.83;;;8.10;97.20;;;6.73;96.48;96777.72;5025637;28;20466;-69
2021/12/29 04:45:49;;;;;;;2.23;0.80;;;8.10;97.30;;;6.71;97.28;96806.66;5026388;28;20473;-70
2021/12/29 04:48:16;;;;;;;3.40;0.93;;;8.10;98.20;;;6.75;97.04;96791.78;5025599;28;20895;-70
2021/12/29 04:50:51;;;;;;;2.37;1.10;;;8.10;98.30;;;6.64;97.82;96787.94;5026906;28;20938;-67
2021/12/29 04:53:21;;;;;;;1.37;0.80;;;8.00;99.50;;;6.74;97.90;96794.66;5024738;28;20820;-72
2021/12/29 04:55:49;;;;;;;1.90;1.00;;;8.00;99.70;;;6.73;97.66;96809.94;5026048;28;20538;-71
2021/12/29 04:58:20;;;;;;;1.93;0.70;;;8.00;99.00;;;6.67;97.64;96800.09;5026429;28;20484;-68
2021/12/29 05:00:49;;;;;;;2.10;1.20;;;8.00;98.80;;;6.61;98.33;96795.63;5042901;28;20474;-68
2021/12/29 05:03:16;;;;;;;1.80;0.80;;;8.00;99.90;;;6.58;98.45;96802.25;5025858;28;20482;-70
2021/12/29 05:05:57;;;;;;;3.77;1.20;;;8.00;99.90;;;6.60;98.19;96807.41;5027517;28;20479;-67
2021/12/29 05:08:28;;;;;;;3.80;0.90;;;8.00;99.60;;;6.68;98.05;96812.47;5025643;28;20513;-71
2021/12/29 05:10:59;;;;;;;1.70;0.80;;;8.00;99.90;;;6.67;97.75;96824.25;5029863;28;20473;-71
2021/12/29 05:13:27;;;;;;;1.30;0.90;;;8.00;99.30;;;6.63;97.37;96825.75;5025184;28;20463;-68
2021/12/29 05:15:55;;;;;;;2.73;1.00;;;8.00;98.80;;;6.72;95.98;96827.09;5031122;28;20542;-67
2021/12/29 05:18:23;;;;;;;1.30;0.83;;;8.10;96.30;;;6.78;96.05;96839.66;5026417;28;20477;-68
2021/12/29 05:20:52;;;;;;;2.70;0.90;;;8.10;96.10;;;6.80;95.34;96837.56;5028927;28;20478;-68
2021/12/29 05:23:20;;;;;;;1.47;0.73;;;8.10;95.20;;;6.84;95.31;96842.50;5028035;28;20463;-70
2021/12/29 05:25:49;;;;;;;1.03;0.70;;;8.20;95.60;;;6.86;94.81;96861.88;5028585;28;20795;-69
2021/12/29 05:28:18;;;;;;;1.13;0.70;;;8.20;94.60;;;6.92;94.35;96855.66;5028105;28;20474;-68
2021/12/29 05:30:47;;;;;;;2.33;1.10;;;8.20;94.40;;;6.91;94.05;96862.06;5022660;28;20454;-73
2021/12/29 05:33:15;;;;;;;1.10;0.60;;;8.20;94.00;;;6.95;93.93;96861.38;5028825;28;20907;-69
2021/12/29 05:35:42;;;;;;;2.00;1.10;;;8.20;94.00;;;6.94;93.76;96864.31;5032155;28;20947;-69
2021/12/29 05:38:11;;;;;;;1.17;0.90;;;8.30;93.70;;;6.88;93.50;96866.00;5025818;28;20459;-68
2021/12/29 05:40:38;;;;;;;1.63;0.73;;;8.20;93.30;;;6.94;92.86;96864.31;5031834;28;20565;-69
2021/12/29 05:43:06;;;;;;;2.03;0.80;;;8.30;93.50;;;6.86;93.86;96856.50;5030733;28;20468;-70
2021/12/29 05:45:33;;;;;;;1.00;0.70;;;8.30;93.80;;;6.90;93.94;96873.81;5028726;28;20966;-69
2021/12/29 05:48:01;;;;;;;1.60;1.00;;;8.20;94.20;;;6.82;93.95;96871.44;5028436;28;20951;-70
2021/12/29 05:50:31;;;;;;;2.63;0.67;;;8.20;93.70;;;6.94;93.92;96875.03;5031284;28;20463;-71
2021/12/29 05:52:59;;;;;;;1.17;0.60;;;8.20;94.10;;;6.86;93.83;96872.63;5027885;28;20465;-70
2021/12/29 05:55:28;;;;;;;1.33;0.50;;;8.20;94.00;;;6.62;93.61;96841.00;5030920;28;20473;-68
2021/12/29 05:57:55;;;;;;;3.57;1.13;;;8.20;93.60;;;6.90;93.35;96889.94;5042436;28;20475;-70
2021/12/29 06:00:24;;;;;;;1.87;1.10;;;8.20;93.30;;;6.89;93.42;96894.50;5044993;28;21065;-70
2021/12/29 06:02:52;;;;;;;0.77;0.70;;;8.20;93.30;;;6.86;93.27;96894.94;5030776;28;20462;-69
2021/12/29 06:05:20;;;;;;;4.43;1.10;;;8.20;93.20;;;6.76;92.33;96868.59;5029491;28;20724;-69
2021/12/29 06:07:47;;;;;;;1.30;0.77;;;8.30;92.70;;;6.88;92.27;96902.75;5027900;28;20453;-70
2021/12/29 06:10:14;;;;;;;1.53;0.60;;;8.30;92.30;;;6.90;92.79;96912.25;5033496;28;20542;-70
2021/12/29 06:12:43;;;;;;;0.87;0.50;;;8.20;92.80;;;6.95;92.44;96919.66;5025601;28;20459;-70
2021/12/29 06:15:10;;;;;;;1.80;0.60;;;8.20;92.60;;;6.90;92.58;96923.00;5029437;28;20558;-71
2021/12/29 06:17:39;;;;;;;1.00;0.60;;;8.20;92.60;;;6.93;92.15;96941.34;5029142;28;20529;-71
2021/12/29 06:20:10;;;;;;;1.80;0.80;;;8.30;92.40;;;6.91;92.06;96937.25;5030098;28;20468;-68
2021/12/29 06:22:38;;;;;;;2.87;0.70;;;8.20;92.10;;;6.91;91.37;96945.31;5042821;28;21508;-68
2021/12/29 06:25:09;;;;;;;1.40;0.70;;;8.20;91.70;;;6.95;91.73;96950.00;5029933;28;20463;-70
2021/12/29 06:27:36;;;;;;;1.67;1.00;;;8.30;92.00;;;6.93;91.87;96952.09;5026839;28;20600;-71
2021/12/29 06:30:08;;;;;;;1.23;0.80;;;8.30;92.20;;;6.95;91.54;96963.44;5029614;28;20459;-70
2021/12/29 06:32:35;;;;;;;0.60;0.40;;;8.30;91.80;;;6.89;91.12;96953.56;5029638;28;20542;-69
2021/12/29 06:35:02;;;;;;;1.47;0.70;;;8.30;91.40;;;6.98;91.09;96970.22;5029197;28;20516;-69
2021/12/29 06:37:29;;;;;;;0.80;0.60;;;8.30;91.60;;;6.98;90.78;96962.19;5024654;28;21004;-68
2021/12/29 06:39:56;;;;;;;1.00;0.60;;;8.30;91.30;;;6.92;90.97;96965.75;5029656;28;20459;-69
2021/12/29 06:42:23;;;;;;;0.77;0.60;;;8.30;91.20;;;6.94;90.47;96964.47;5026281;28;20895;-69
2021/12/29 06:44:50;;;;;;;0.60;0.57;;;8.30;90.90;;;7.01;89.88;96966.31;5028994;28;20554;-72
2021/12/29 06:47:19;;;;;;;1.10;0.83;;;8.30;90.50;;;6.98;90.07;96967.53;5026361;28;20556;-68
2021/12/29 06:49:46;;;;;;;1.73;0.87;;;8.30;90.80;;;7.01;90.11;96972.47;5029003;28;20486;-68
2021/12/29 06:52:13;;;;;;;0.90;0.77;;;8.40;90.90;;;6.98;89.92;96983.66;5029873;28;20550;-69
2021/12/29 06:54:40;;;;;;;0.77;0.67;;;8.30;90.40;;;6.97;89.65;96991.94;5046536;28;20523;-67
2021/12/29 06:57:08;;;;;;;1.50;1.03;;;8.30;90.30;;;6.99;89.48;96988.00;5029524;28;20459;-70
2021/12/29 06:59:35;;;;;;;0.73;0.60;;;8.30;90.30;;;7.00;89.09;96997.69;5028636;28;20953;-68
2021/12/29 07:02:02;;;;;;;1.17;0.67;;;8.30;90.20;;;7.06;89.38;96991.47;5031531;28;20926;-72
2021/12/29 07:04:31;;;;;;;1.70;0.80;;;8.40;90.10;;;7.08;89.39;97004.66;5032517;28;20957;-72
2021/12/29 07:06:58;;;;;;;1.37;0.90;;;8.40;90.00;;;7.07;88.74;97000.34;5028162;28;20898;-71
2021/12/29 07:09:26;;;;;;;0.90;0.60;;;8.40;89.80;;;7.02;88.81;97010.91;5042800;28;20510;-71
2021/12/29 07:11:54;;;;;;;1.03;0.77;;;8.40;89.60;;;7.06;88.51;97018.31;5026594;28;20486;-72
2021/12/29 07:14:21;;;;;;;1.77;0.47;;;8.40;89.60;;;7.06;88.87;97023.69;5029322;28;20528;-72
2021/12/29 07:16:50;;;;;;;1.00;0.60;;;8.40;89.40;;;7.11;88.71;97038.34;5029471;28;20559;-72
2021/12/29 07:19:18;;;;;;;1.53;0.60;;;8.40;89.90;;;7.08;88.74;97043.09;5029426;28;20487;-72
2021/12/29 07:21:48;;;;;;;0.70;0.70;;;8.50;89.50;;;7.09;88.72;97046.59;5027137;28;20475;-76
2021/12/29 07:24:16;;;;;;;1.37;0.70;;;8.40;89.70;;;6.98;88.62;97037.38;5030129;28;20466;-72
2021/12/29 07:26:44;;;;;;;2.30;0.70;;;8.40;89.50;;;7.07;88.94;97049.50;5026121;28;20477;-72
2021/12/29 07:29:11;;;;;;;0.73;0.70;;;8.40;89.40;;;7.06;88.87;97066.69;5028378;28;20516;-72
2021/12/29 07:31:38;;;;;;;1.10;0.90;;;8.40;89.60;;;7.07;88.90;97072.84;5029014;28;20812;-73
2021/12/29 07:34:07;;;;;;;1.07;0.83;;;8.40;89.80;;;7.06;88.43;97074.72;5027573;28;20721;-76
2021/12/29 07:36:34;;;;;;;2.17;0.93;;;8.40;89.30;;;7.08;88.87;97069.13;5028096;28;20458;-76
2021/12/29 07:39:05;;;;;;;1.07;0.90;;;8.40;90.00;;;7.02;88.92;97062.75;5028100;28;20469;-72
2021/12/29 07:41:32;;;;;;;1.23;1.13;;;8.40;89.60;;;7.07;88.62;97059.41;5026460;28;20471;-72
2021/12/29 07:43:59;;;;;;;1.17;0.70;;;8.50;89.40;;;7.18;88.78;97060.59;5036421;28;20451;-73
2021/12/29 07:46:31;;;;;;;1.37;1.00;;;8.40;89.80;;;7.22;88.41;97056.44;5027085;28;20462;-75
2021/12/29 07:48:59;;;;;;;1.10;1.00;;;8.50;89.40;;;7.13;88.32;97055.88;5042209;28;20443;-73
2021/12/29 07:51:26;;;;;;;2.37;1.10;;;8.50;88.90;;;7.11;88.36;97063.31;5028147;28;20469;-72
2021/12/29 07:53:53;;;;;;;0.70;0.70;;;8.40;89.20;;;7.18;88.20;97066.78;5029589;28;20459;-72
2021/12/29 07:56:22;;;;;;;0.70;0.70;;;8.50;89.00;;;7.13;88.05;97055.88;5026836;28;20465;-71
2021/12/29 07:58:50;;;;;;;1.77;0.70;;;8.50;88.60;;;7.17;87.99;97061.63;5027607;28;20977;-71
2021/12/29 08:01:17;;;;;;;1.00;0.90;;;8.50;88.60;;;7.19;87.90;97059.53;5027695;28;20993;-72
2021/12/29 08:03:44;;;;;;;1.23;0.90;;;8.50;88.80;;;7.19;87.66;97072.97;5026130;28;20451;-73
2021/12/29 08:06:11;;;;;;;1.17;1.00;;;8.60;88.30;;;7.23;88.17;97071.53;5025237;28;20549;-71
2021/12/29 08:08:38;;;;;;;1.80;1.70;;;8.50;88.80;;;7.26;87.42;97071.09;5044811;28;21004;-72
2021/12/29 08:11:05;;;;;;;1.40;1.03;;;8.50;88.50;;;7.22;87.55;97075.25;5026627;28;20459;-73
2021/12/29 08:13:33;;;;;;;3.00;0.73;;;8.60;87.90;;;7.22;87.30;97080.63;5027114;28;20977;-71
2021/12/29 08:16:00;;;;;;;3.53;1.13;;;8.60;87.60;;;7.23;87.59;97082.28;5028109;28;20468;-74
2021/12/29 08:18:27;;;;;;;1.03;0.93;;;8.50;88.20;;;7.22;87.21;97088.69;5026562;28;20463;-71
2021/12/29 08:20:54;;;;;;;2.63;0.97;;;8.60;87.80;;;7.20;87.39;97093.44;5026279;28;20606;-74
2021/12/29 08:23:21;;;;;;;1.60;1.30;;;8.50;88.00;;;7.29;87.18;97113.63;5025762;28;20542;-73
2021/12/29 08:25:48;;;;;;;2.03;1.30;;;8.60;88.10;;;7.36;87.11;97117.13;5025400;28;20566;-71
2021/12/29 08:28:15;;;;;;;1.60;1.10;;;8.60;87.90;;;7.38;86.72;97122.25;5026786;28;20650;-72
2021/12/29 08:30:43;;;;;;;1.23;1.13;;;8.60;87.40;;;7.33;86.61;97128.28;5027858;28;20489;-75
2021/12/29 08:33:11;;;;;;;3.40;1.10;;;8.70;87.20;;;7.36;86.55;97127.88;5027706;28;21054;-72
2021/12/29 08:35:38;;;;;;;1.47;0.80;;;8.70;87.00;;;7.46;85.91;97140.00;5028252;28;20502;-73
2021/12/29 08:38:05;;;;;;;1.13;0.80;;;8.70;86.70;;;7.44;86.36;97153.66;5027646;28;20541;-75
2021/12/29 08:40:32;;;;;;;0.60;0.60;;;8.70;86.90;;;7.52;86.05;97144.50;5025297;28;20491;-74
2021/12/29 08:43:01;;;;;;;0.83;0.80;;;8.80;86.70;;;7.41;86.71;97143.31;5041673;28;20593;-73
2021/12/29 08:45:29;;;;;;;0.77;0.60;;;8.70;87.00;;;7.51;86.19;97137.50;5042137;28;20462;-73
2021/12/29 08:47:58;;;;;;;1.50;0.80;;;8.80;87.00;;;7.59;86.57;97145.28;5026090;28;20467;-72
2021/12/29 08:50:29;;;;;;;1.93;0.87;;;8.80;87.10;;;7.59;86.27;97139.91;5027654;28;20938;-74
2021/12/29 08:52:57;;;;;;;0.60;0.50;;;8.90;86.90;;;7.45;86.68;97144.56;5025349;28;20684;-72
2021/12/29 08:55:24;;;;;;;0.40;0.40;;;8.80;86.90;;;7.41;86.74;97154.06;5025324;28;20495;-73
2021/12/29 08:57:51;;;;;;;1.90;1.60;;;8.80;87.10;;;7.57;87.43;97146.53;5026040;28;20485;-73
2021/12/29 09:00:20;;;;;;;0.87;0.60;;;8.80;87.80;;;7.62;86.59;97158.28;5028081;28;20554;-72
2021/12/29 09:02:48;;;;;;;0.80;0.70;;;8.90;87.00;;;7.48;85.74;97165.63;5028394;28;20873;-72
2021/12/29 09:05:18;;;;;;;0.93;0.47;;;8.80;86.30;;;7.50;87.00;97166.22;5030426;28;20890;-73
2021/12/29 09:07:46;;;;;;;1.00;0.80;;;8.80;86.80;;;7.22;87.04;97140.53;5028103;28;20481;-72
2021/12/29 09:10:16;;;;;;;1.07;0.70;;;8.80;87.60;;;7.35;88.94;97171.91;5029344;28;20734;-73
2021/12/29 09:12:43;;;;;;;0.60;0.60;;;8.70;89.80;;;7.18;90.36;97187.69;5028695;28;20467;-73
2021/12/29 09:15:10;;;;;;;0.73;0.73;;;8.60;90.70;;;7.04;91.18;97176.16;5030196;28;20482;-73
2021/12/29 09:17:37;;;;;;;1.07;0.50;;;8.50;91.50;;;7.09;91.62;97192.50;5029771;28;20457;-75
2021/12/29 09:20:13;;;;;;;0.87;0.87;;;8.40;92.30;;;7.25;92.02;97202.94;5031410;28;20466;-74
2021/12/29 09:22:42;;;;;;;3.30;0.60;;;8.50;92.70;;;7.28;91.89;97197.97;5030250;28;20581;-75
2021/12/29 09:25:09;;;;;;;1.50;1.07;;;8.60;92.60;;;7.46;91.72;97209.88;5030476;28;20459;-76
2021/12/29 09:27:37;;;;;;;1.70;1.20;;;8.70;92.70;;;7.46;91.88;97210.72;5027867;28;20450;-73
2021/12/29 09:30:05;;;;;;;1.63;1.00;;;8.70;92.60;;;7.36;91.61;97219.25;5029751;28;20542;-73
2021/12/29 09:32:32;;;;;;;5.40;1.77;;;8.70;92.40;;;7.34;92.19;97212.41;5027961;28;20460;-72
2021/12/29 09:35:00;;;;;;;2.63;1.50;;;8.70;92.70;;;7.46;91.14;97220.63;5028157;28;20481;-73
2021/12/29 09:37:27;;;;;;;1.97;1.70;;;8.70;92.00;;;7.44;91.61;97215.47;5029176;28;20490;-73
2021/12/29 09:39:55;;;;;;;1.93;1.83;;;8.70;92.30;;;7.50;90.53;97216.47;5030583;28;20997;-72
2021/12/29 09:42:23;;;;;;;2.63;1.70;;;8.90;91.60;;;7.47;90.58;97220.41;5029656;28;20463;-74
2021/12/29 09:44:52;;;;;;;1.73;1.60;;;8.80;91.40;;;7.72;89.71;97218.81;5030698;28;20464;-73
2021/12/29 09:47:19;;;;;;;2.37;1.53;;;8.90;91.50;;;7.74;89.63;97224.81;5027917;28;20857;-74
2021/12/29 09:49:46;;;;;;;2.20;1.80;;;9.00;90.50;;;7.84;89.05;97232.41;5030961;28;20463;-72
2021/12/29 09:52:14;;;;;;;1.73;1.10;;;9.10;90.40;;;7.65;89.11;97230.44;5027182;28;20451;-73
2021/12/29 09:54:41;;;;;;;1.40;1.30;;;9.00;90.30;;;7.71;89.32;97228.75;5031158;28;20550;-77
2021/12/29 09:57:09;;;;;;;3.63;1.20;;;9.00;90.50;;;7.84;89.30;97230.53;5028052;28;20918;-74
2021/12/29 09:59:36;;;;;;;1.90;1.50;;;9.10;90.70;;;7.70;89.43;97226.28;5031562;28;20471;-72
2021/12/29 10:02:04;;;;;;;1.70;1.60;;;9.00;90.50;;;7.63;90.62;97232.50;5029097;28;20474;-71
2021/12/29 10:04:34;;;;;;;1.20;0.97;;;9.00;91.00;;;7.61;90.59;97236.47;5029237;28;20779;-72
2021/12/29 10:07:13;;;;;;;1.67;1.10;;;9.00;91.10;;;7.60;90.54;97230.25;5043413;28;20742;-74
2021/12/29 10:09:40;;;;;;;1.40;1.30;;;9.00;91.40;;;7.55;90.53;97242.69;5030391;28;20490;-73
2021/12/29 10:12:17;;;;;;;2.53;1.43;;;8.90;91.20;;;7.61;89.71;97250.72;5027955;28;21101;-76
2021/12/29 10:14:49;;;;;;;1.40;1.30;;;8.90;90.90;;;7.58;90.08;97236.88;5029232;28;20463;-74
2021/12/29 10:17:17;;;;;;;2.40;1.70;;;8.90;91.00;;;7.50;91.59;97237.97;5028305;28;20850;-72
2021/12/29 10:19:44;;;;;;;1.40;1.27;;;8.90;92.00;;;7.39;92.33;97236.78;5021825;28;20471;-71
2021/12/29 10:22:21;;;;;;;1.37;1.27;;;8.80;92.80;;;7.20;93.44;97254.63;5027789;28;20542;-72
2021/12/29 10:24:48;;;;;;;1.40;0.93;;;8.70;93.50;;;7.08;94.50;97263.38;5022837;28;20486;-77
2021/12/29 10:27:20;;;;;;;1.07;1.00;;;8.50;94.60;;;7.05;96.29;97266.47;5028764;28;21024;-76
2021/12/29 10:29:47;;;;;;;1.30;1.20;;;8.40;97.20;;;6.83;96.93;97260.53;5031980;28;20570;-72
2021/12/29 10:32:24;;;;;;;1.20;1.10;;;8.20;98.60;;;6.84;97.42;97264.03;5030166;28;20465;-71
2021/12/29 10:34:52;;;;;;;2.10;1.70;;;8.20;99.90;;;6.82;98.32;97264.25;5031421;28;20474;-75
2021/12/29 10:37:20;;;;;;;1.70;1.60;;;8.20;99.90;;;6.98;98.51;97265.66;5039800;28;20884;-73